LIPY/AOI METAR and TAF weather

Enter ICAO airport designator
Station Type Date Time Source
LIPY METAR 2020/07/14 21:50 UTC NOAA

LIPY 142150Z AUTO 18002KT 9999 NCD 18/11 Q1014


Station Type Date Time Source
LIPY Decoded METAR 2020/07/14 21:50 UTC NOAA

Falconara, Italy (LIPY) 43-37N 013-22E 10M
Jul 14, 2020 - 05:50 PM EDT / 2020.07.14 2150 UTC
Wind: from the S (180 degrees) at 2 MPH (2 KT):0
Visibility: greater than 7 mile(s):0
Temperature: 64 F (18 C)
Dew Point: 51 F (11 C)
Relative Humidity: 63%
Pressure (altimeter): 29.94 in. Hg (1014 hPa)
ob: LIPY 142150Z AUTO 18002KT 9999 NCD 18/11 Q1014
cycle: 22

Station Type Date Time Source
LIPY TAF 2020/07/14 18:21 UTC NOAA

TAF LIPY 141700Z 1418/1518 35010KT CAVOK
BECMG 1420/1422 VRB05KT
BECMG 1508/1510 08010KT

Example: see airport list